Time,TemperatureF,DewpointF,PressureIn,WindDirection,WindDirectionDegrees,WindSpeedMPH,WindSpeedGustMPH,Humidity,HourlyPrecipIn,Conditions,Clouds,dailyrainin,SoftwareType,DateUTC
2013-08-27 00:29:00,72.0,-99.9,-100.00,SSE,167,2.0,9.0,-999,-99.99,,,-99.99,,2013-08-27 04:29:00,
2013-08-27 00:38:00,72.0,-99.9,-100.00,SSE,167,2.0,9.0,-999,-99.99,,,-99.99,,2013-08-27 04:38:00,
2013-08-27 00:40:00,71.0,-99.9,-100.00,South,170,3.0,6.0,-999,-99.99,,,-99.99,,2013-08-27 04:40:00,
2013-08-27 01:13:00,71.0,-99.9,-100.00,South,170,3.0,6.0,-999,-99.99,,,-99.99,,2013-08-27 05:13:00,
2013-08-27 01:23:00,71.0,-99.9,-100.00,South,170,3.0,6.0,-999,-99.99,,,-99.99,,2013-08-27 05:23:00,
2013-08-27 01:35:00,71.0,-99.9,-100.00,South,170,3.0,6.0,-999,-99.99,,,-99.99,,2013-08-27 05:35:00,
2013-08-27 01:40:00,71.0,-99.9,-100.00,SSW,202,1.0,3.0,-999,-99.99,,,-99.99,,2013-08-27 05:40:00,
2013-08-27 02:22:00,71.0,-99.9,-100.00,SSW,202,1.0,3.0,-999,-99.99,,,-99.99,,2013-08-27 06:22:00,
2013-08-27 02:32:00,71.0,-99.9,-100.00,SSW,202,1.0,3.0,-999,-99.99,,,-99.99,,2013-08-27 06:32:00,
2013-08-27 03:12:00,71.0,-99.9,-100.00,West,264,15.0,19.0,-999,-99.99,,,-99.99,,2013-08-27 07:12:00,
2013-08-27 03:22:00,71.0,-99.9,-100.00,West,264,15.0,19.0,-999,-99.99,,,-99.99,,2013-08-27 07:22:00,
2013-08-27 03:32:00,71.0,-99.9,-100.00,West,264,15.0,19.0,-999,-99.99,,,-99.99,,2013-08-27 07:32:00,
2013-08-27 03:52:00,72.0,-99.9,-100.00,West,262,23.0,29.0,-999,-99.99,,,-99.99,,2013-08-27 07:52:00,
2013-08-27 04:12:00,69.0,-99.9,-100.00,West,275,4.0,7.0,-999,-99.99,,,-99.99,,2013-08-27 08:12:00,
2013-08-27 04:22:00,69.0,-99.9,-100.00,West,275,4.0,7.0,-999,-99.99,,,-99.99,,2013-08-27 08:22:00,
2013-08-27 04:40:00,69.0,-99.9,-100.00,ENE,71,4.0,7.0,-999,-99.99,,,-99.99,,2013-08-27 08:40:00,
2013-08-27 04:42:00,69.0,-99.9,-100.00,West,275,4.0,0.0,-999,-99.99,,,-99.99,,2013-08-27 08:42:00,
2013-08-27 05:12:00,69.0,-99.9,-100.00,ENE,71,4.0,7.0,-999,-99.99,,,-99.99,,2013-08-27 09:12:00,
2013-08-27 05:22:00,69.0,-99.9,-100.00,ENE,71,4.0,7.0,-999,-99.99,,,-99.99,,2013-08-27 09:22:00,
2013-08-27 05:35:00,69.0,-99.9,-100.00,ENE,71,4.0,7.0,-999,-99.99,,,-99.99,,2013-08-27 09:35:00,
2013-08-27 05:40:00,68.0,-99.9,-100.00,North,-999,0.0,1.0,-999,-99.99,,,-99.99,,2013-08-27 09:40:00,
2013-08-27 06:14:00,68.0,-99.9,-100.00,North,-999,0.0,1.0,-999,-99.99,,,-99.99,,2013-08-27 10:14:00,
2013-08-27 06:25:00,68.0,-99.9,-100.00,North,-999,0.0,1.0,-999,-99.99,,,-99.99,,2013-08-27 10:25:00,
2013-08-27 06:34:00,68.0,-99.9,-100.00,North,-999,0.0,1.0,-999,-99.99,,,-99.99,,2013-08-27 10:34:00,
2013-08-27 07:12:00,68.0,-99.9,-100.00,SSW,206,3.0,4.0,-999,-99.99,,,-99.99,,2013-08-27 11:12:00,
2013-08-27 07:22:00,68.0,-99.9,-100.00,SSW,206,3.0,4.0,-999,-99.99,,,-99.99,,2013-08-27 11:22:00,
2013-08-27 07:33:00,68.0,-99.9,-100.00,SSW,206,3.0,4.0,-999,-99.99,,,-99.99,,2013-08-27 11:33:00,
2013-08-27 07:52:00,69.0,-99.9,-100.00,West,270,11.0,13.0,-999,-99.99,,,-99.99,,2013-08-27 11:52:00,
2013-08-27 08:12:00,69.0,-99.9,-100.00,West,277,10.0,13.0,-999,-99.99,,,-99.99,,2013-08-27 12:12:00,
2013-08-27 08:22:00,69.0,-99.9,-100.00,West,270,11.0,13.0,-999,-99.99,,,-99.99,,2013-08-27 12:22:00,
2013-08-27 08:42:00,69.0,-99.9,-100.00,West,270,11.0,13.0,-999,-99.99,,,-99.99,,2013-08-27 12:42:00,
2013-08-27 08:52:00,69.0,-99.9,-100.00,West,270,11.0,13.0,-999,-99.99,,,-99.99,,2013-08-27 12:52:00,
2013-08-27 09:12:00,69.0,-99.9,-100.00,WNW,298,5.0,8.0,-999,-99.99,,,-99.99,,2013-08-27 13:12:00,
2013-08-27 09:22:00,69.0,-99.9,-100.00,WNW,298,5.0,8.0,-999,-99.99,,,-99.99,,2013-08-27 13:22:00,
2013-08-27 09:42:00,69.0,-99.9,-100.00,WNW,284,5.0,14.0,-999,-99.99,,,-99.99,,2013-08-27 13:42:00,
2013-08-27 09:53:00,69.0,-99.9,-100.00,WNW,284,5.0,14.0,-999,-99.99,,,-99.99,,2013-08-27 13:53:00,
2013-08-27 10:02:00,69.0,-99.9,-100.00,WNW,284,5.0,14.0,-999,-99.99,,,-99.99,,2013-08-27 14:02:00,
2013-08-27 10:22:00,69.0,-99.9,-100.00,SW,236,12.0,20.0,-999,-99.99,,,-99.99,,2013-08-27 14:22:00,
2013-08-27 10:40:00,68.0,-99.9,-100.00,SSW,202,8.0,9.0,-999,-99.99,,,-99.99,,2013-08-27 14:40:00,
2013-08-27 10:42:00,68.0,-99.9,-100.00,South,173,11.0,20.0,-999,-99.99,,,-99.99,,2013-08-27 14:42:00,
2013-08-27 10:53:00,68.0,-99.9,-100.00,South,173,11.0,20.0,-999,-99.99,,,-99.99,,2013-08-27 14:53:00,
2013-08-27 11:11:00,68.0,-99.9,-100.00,SSW,202,8.0,9.0,-999,-99.99,,,-99.99,,2013-08-27 15:11:00,
2013-08-27 11:22:00,68.0,-99.9,-100.00,SSW,202,8.0,9.0,-999,-99.99,,,-99.99,,2013-08-27 15:22:00,
2013-08-27 11:35:00,68.0,-99.9,-100.00,SSW,202,8.0,9.0,-999,-99.99,,,-99.99,,2013-08-27 15:35:00,
2013-08-27 11:40:00,68.0,-99.9,-100.00,WSW,239,3.0,4.0,-999,-99.99,,,-99.99,,2013-08-27 15:40:00,
2013-08-27 12:28:00,68.0,-99.9,-100.00,WSW,239,3.0,4.0,-999,-99.99,,,-99.99,,2013-08-27 16:28:00,
2013-08-27 12:35:00,68.0,-99.9,-100.00,WSW,239,3.0,4.0,-999,-99.99,,,-99.99,,2013-08-27 16:35:00,
2013-08-27 12:40:00,70.0,-99.9,-100.00,SSW,213,6.0,12.0,-999,-99.99,,,-99.99,,2013-08-27 16:40:00,
2013-08-27 13:13:00,70.0,-99.9,-100.00,SSW,213,6.0,12.0,-999,-99.99,,,-99.99,,2013-08-27 17:13:00,
2013-08-27 13:23:00,70.0,-99.9,-100.00,SSW,213,6.0,12.0,-999,-99.99,,,-99.99,,2013-08-27 17:23:00,
2013-08-27 13:36:00,70.0,-99.9,-100.00,SSW,213,6.0,12.0,-999,-99.99,,,-99.99,,2013-08-27 17:36:00,
2013-08-27 14:12:00,69.0,-99.9,-100.00,SE,137,8.0,9.0,-999,-99.99,,,-99.99,,2013-08-27 18:12:00,
2013-08-27 14:42:00,69.0,-99.9,-100.00,SE,137,8.0,14.0,-999,-99.99,,,-99.99,,2013-08-27 18:42:00,
2013-08-27 14:53:00,69.0,-99.9,-100.00,SE,137,8.0,14.0,-999,-99.99,,,-99.99,,2013-08-27 18:53:00,
2013-08-27 15:12:00,69.0,-99.9,-100.00,ESE,119,7.0,8.0,-999,-99.99,,,-99.99,,2013-08-27 19:12:00,
2013-08-27 15:22:00,69.0,-99.9,-100.00,ESE,119,7.0,8.0,-999,-99.99,,,-99.99,,2013-08-27 19:22:00,
2013-08-27 15:42:00,69.0,-99.9,-100.00,ESE,114,9.0,11.0,-999,-99.99,,,-99.99,,2013-08-27 19:42:00,
2013-08-27 16:12:00,68.0,-99.9,-100.00,SE,133,8.0,10.0,-999,-99.99,,,-99.99,,2013-08-27 20:12:00,